createdAt,value
2022-08-25T00:01:37.640Z,1.55
2022-08-25T00:04:07.725Z,1.20
2022-08-25T00:06:35.898Z,1.10
2022-08-25T00:09:03.254Z,1.60
2022-08-25T00:11:31.905Z,0.82
2022-08-25T00:14:01.028Z,1.17
2022-08-25T00:16:31.293Z,0.98
2022-08-25T00:19:00.759Z,1.00
2022-08-25T00:21:28.366Z,1.40
2022-08-25T00:23:55.899Z,1.38
2022-08-25T00:26:23.202Z,1.40
2022-08-25T00:28:50.447Z,1.17
2022-08-25T00:31:23.408Z,1.33
2022-08-25T00:34:07.553Z,1.30
2022-08-25T00:36:35.083Z,1.70
2022-08-25T00:39:02.385Z,1.60
2022-08-25T00:41:29.689Z,1.60
2022-08-25T00:44:01.948Z,1.23
2022-08-25T00:46:31.053Z,1.58
2022-08-25T00:49:00.574Z,2.05
2022-08-25T00:51:36.044Z,1.52
2022-08-25T00:54:03.988Z,1.27
2022-08-25T00:56:31.841Z,1.70
2022-08-25T00:59:00.391Z,1.48
2022-08-25T01:01:27.973Z,1.58
2022-08-25T01:03:55.301Z,1.38
2022-08-25T01:06:22.620Z,1.75
2022-08-25T01:08:50.201Z,1.48
2022-08-25T01:11:17.481Z,1.63
2022-08-25T01:13:49.459Z,1.60
2022-08-25T01:16:17.666Z,1.45
2022-08-25T01:18:47.448Z,1.20
2022-08-25T01:21:15.403Z,1.73
2022-08-25T01:23:42.650Z,2.05
2022-08-25T01:26:13.238Z,1.88
2022-08-25T01:29:01.108Z,1.60
2022-08-25T01:31:28.988Z,1.60
2022-08-25T01:33:56.769Z,2.00
2022-08-25T01:36:24.224Z,2.28
2022-08-25T01:38:51.670Z,1.83
2022-08-25T01:41:36.653Z,1.90
2022-08-25T01:44:07.533Z,2.00
2022-08-25T01:46:47.210Z,1.42
2022-08-25T01:49:14.687Z,1.98
2022-08-25T01:51:44.442Z,2.05
2022-08-25T01:54:11.716Z,2.08
2022-08-25T01:56:38.941Z,1.70
2022-08-25T01:59:06.227Z,2.08
2022-08-25T02:01:33.257Z,2.03
2022-08-25T02:04:00.941Z,1.83
2022-08-25T02:06:32.341Z,2.20
2022-08-25T02:09:01.875Z,1.83
2022-08-25T02:11:29.385Z,1.50
2022-08-25T02:13:56.629Z,1.58
2022-08-25T02:16:28.767Z,2.05
2022-08-25T02:18:56.862Z,1.80
2022-08-25T02:21:24.185Z,1.90
2022-08-25T02:23:51.423Z,1.80
2022-08-25T02:26:19.977Z,1.85
2022-08-25T02:28:48.269Z,2.05
2022-08-25T02:31:16.292Z,2.33
2022-08-25T02:33:43.781Z,1.88
2022-08-25T02:36:10.608Z,1.95
2022-08-25T02:38:37.999Z,1.88
2022-08-25T02:41:12.564Z,2.08
2022-08-25T02:43:41.510Z,2.35
2022-08-25T02:46:09.448Z,2.20
2022-08-25T02:48:37.568Z,1.90
2022-08-25T02:51:06.540Z,2.22
2022-08-25T02:53:34.142Z,2.03
2022-08-25T02:56:01.804Z,2.03
2022-08-25T02:58:29.115Z,2.33
2022-08-25T03:00:56.796Z,2.20
2022-08-25T03:03:24.224Z,2.30
2022-08-25T03:05:51.168Z,2.50
2022-08-25T03:08:18.620Z,2.13
2022-08-25T03:10:45.938Z,2.42
2022-08-25T03:13:14.673Z,2.40
2022-08-25T03:15:42.550Z,2.50
2022-08-25T03:18:11.661Z,2.40
2022-08-25T03:20:41.771Z,2.60
2022-08-25T03:23:09.033Z,2.30
2022-08-25T03:25:55.107Z,2.30
2022-08-25T03:28:29.816Z,2.60
2022-08-25T03:30:57.668Z,2.20
2022-08-25T03:33:24.889Z,2.67
2022-08-25T03:35:52.145Z,2.30
2022-08-25T03:38:19.659Z,3.30
2022-08-25T03:40:46.994Z,2.50
2022-08-25T03:43:14.255Z,2.75
2022-08-25T03:45:42.208Z,2.55
2022-08-25T03:48:10.428Z,2.83
2022-08-25T03:50:37.864Z,2.53
2022-08-25T03:53:05.120Z,2.38
2022-08-25T03:55:32.664Z,2.53
2022-08-25T03:58:00.003Z,3.10
2022-08-25T04:00:27.263Z,2.72
2022-08-25T04:02:54.523Z,2.70
2022-08-25T04:05:21.741Z,2.75
2022-08-25T04:07:48.908Z,2.60
2022-08-25T04:10:16.238Z,2.70
2022-08-25T04:12:43.133Z,2.95
2022-08-25T04:15:10.985Z,3.15
2022-08-25T04:17:40.084Z,2.50
2022-08-25T04:20:14.086Z,2.90
2022-08-25T04:22:41.208Z,2.78
2022-08-25T04:25:12.339Z,2.80
2022-08-25T04:27:39.665Z,3.20
2022-08-25T04:30:07.580Z,3.00
2022-08-25T04:32:36.316Z,2.60
2022-08-25T04:35:05.413Z,2.92
2022-08-25T04:37:33.356Z,2.60
2022-08-25T04:40:00.478Z,2.70
2022-08-25T04:42:27.950Z,2.63
2022-08-25T04:44:54.753Z,2.67
2022-08-25T04:47:22.623Z,3.30
2022-08-25T04:49:49.900Z,2.75
2022-08-25T04:52:16.775Z,3.35
2022-08-25T04:54:44.207Z,2.80
2022-08-25T04:57:11.176Z,2.95
2022-08-25T04:59:38.524Z,3.53
2022-08-25T05:02:06.656Z,3.25
2022-08-25T05:04:35.612Z,3.33
2022-08-25T05:07:03.370Z,3.08
2022-08-25T05:09:32.387Z,2.90
2022-08-25T05:12:00.752Z,2.90
2022-08-25T05:14:28.013Z,2.67
2022-08-25T05:16:57.362Z,3.22
2022-08-25T05:19:24.783Z,2.72
2022-08-25T05:21:52.307Z,2.75
2022-08-25T05:24:20.170Z,3.13
2022-08-25T05:26:47.646Z,2.88
2022-08-25T05:29:15.651Z,2.92
2022-08-25T05:31:48.205Z,3.30
2022-08-25T05:34:16.627Z,3.15
2022-08-25T05:36:44.536Z,3.38
2022-08-25T05:39:12.025Z,3.22
2022-08-25T05:41:39.419Z,3.10
2022-08-25T05:44:06.265Z,3.00
2022-08-25T05:46:33.503Z,3.10
2022-08-25T05:49:01.072Z,3.13
2022-08-25T05:51:28.520Z,3.03
2022-08-25T05:53:55.759Z,5.13
2022-08-25T05:56:23.029Z,3.20
2022-08-25T05:58:50.687Z,2.97
2022-08-25T06:01:41.100Z,3.10
2022-08-25T06:04:10.951Z,2.90
2022-08-25T06:06:38.395Z,2.83
2022-08-25T06:09:08.484Z,2.97
2022-08-25T06:11:36.553Z,2.95
2022-08-25T06:14:03.944Z,3.35
2022-08-25T06:16:31.234Z,3.28
2022-08-25T06:18:58.577Z,3.22
2022-08-25T06:21:26.294Z,2.95
2022-08-25T06:23:53.140Z,3.25
2022-08-25T06:26:21.113Z,3.55
2022-08-25T06:28:49.475Z,3.38
2022-08-25T06:31:17.236Z,3.55
2022-08-25T06:33:45.025Z,3.25
2022-08-25T06:36:12.405Z,3.05
2022-08-25T06:38:39.676Z,3.10
2022-08-25T06:41:07.831Z,4.28
2022-08-25T06:43:35.607Z,3.72
2022-08-25T06:46:20.445Z,2.90
2022-08-25T06:48:48.394Z,2.97
2022-08-25T06:51:17.299Z,3.45
2022-08-25T06:53:46.325Z,3.25
2022-08-25T06:56:15.068Z,3.42
2022-08-25T06:58:42.946Z,3.97
2022-08-25T07:01:15.877Z,3.30
2022-08-25T07:03:47.586Z,3.60
2022-08-25T07:06:18.297Z,3.15
2022-08-25T07:08:46.367Z,3.30
2022-08-25T07:11:16.313Z,3.42
2022-08-25T07:13:43.715Z,3.42
2022-08-25T07:16:15.545Z,3.50
2022-08-25T07:18:44.217Z,3.35
2022-08-25T07:21:12.384Z,3.50
2022-08-25T07:23:40.483Z,3.63
2022-08-25T07:26:15.722Z,2.90
2022-08-25T07:28:54.354Z,4.05
2022-08-25T07:31:22.090Z,3.90
2022-08-25T07:34:15.354Z,3.75
2022-08-25T07:36:43.775Z,4.38
2022-08-25T07:39:11.514Z,3.83
2022-08-25T07:41:40.382Z,4.00
2022-08-25T07:44:09.008Z,3.38
2022-08-25T07:46:36.297Z,3.50
2022-08-25T07:49:03.645Z,3.83
2022-08-25T07:51:31.009Z,3.20
2022-08-25T07:53:59.088Z,4.18
2022-08-25T07:56:28.662Z,3.38
2022-08-25T07:58:56.150Z,3.38
2022-08-25T08:01:24.736Z,3.40
2022-08-25T08:03:52.437Z,3.35
2022-08-25T08:06:22.392Z,3.55
2022-08-25T08:08:50.850Z,3.40
2022-08-25T08:11:24.008Z,3.47
2022-08-25T08:13:51.990Z,3.55
2022-08-25T08:16:20.033Z,3.00
2022-08-25T08:18:47.307Z,3.38
2022-08-25T08:21:20.522Z,3.42
2022-08-25T08:23:49.221Z,3.63
2022-08-25T08:26:16.899Z,4.07
2022-08-25T08:28:44.635Z,4.05
2022-08-25T08:31:24.011Z,3.45
2022-08-25T08:33:54.957Z,3.47
2022-08-25T08:36:22.723Z,3.40
2022-08-25T08:38:53.262Z,3.33
2022-08-25T08:42:11.336Z,3.85
2022-08-25T08:44:50.022Z,3.30
2022-08-25T08:47:17.413Z,3.53
2022-08-25T08:50:04.641Z,4.13
2022-08-25T08:52:39.831Z,3.47
2022-08-25T08:55:10.439Z,3.53
2022-08-25T08:57:42.980Z,3.25
2022-08-25T09:00:10.843Z,3.28
2022-08-25T09:02:51.338Z,4.22
2022-08-25T09:05:21.422Z,3.42
2022-08-25T09:07:54.744Z,3.45
2022-08-25T09:10:40.941Z,3.38
2022-08-25T09:16:07.537Z,3.05
2022-08-25T09:18:55.165Z,3.60
2022-08-25T09:21:29.253Z,2.45
2022-08-25T09:23:59.628Z,2.97
2022-08-25T09:26:27.927Z,3.10
2022-08-25T09:29:16.512Z,3.42
2022-08-25T09:31:44.424Z,3.40
2022-08-25T09:34:13.384Z,3.38
2022-08-25T09:36:41.519Z,3.28
2022-08-25T09:39:09.889Z,3.10
2022-08-25T09:41:51.244Z,3.30
2022-08-25T09:44:19.366Z,3.10
2022-08-25T09:47:15.873Z,3.13
2022-08-25T09:49:46.873Z,2.75
2022-08-25T09:52:19.520Z,3.00
2022-08-25T09:54:50.203Z,3.28
2022-08-25T09:57:29.755Z,3.42
2022-08-25T09:59:58.056Z,3.17
2022-08-25T10:02:27.226Z,2.92
2022-08-25T10:04:54.701Z,2.75
2022-08-25T10:07:25.658Z,2.88
2022-08-25T10:09:57.764Z,3.13
2022-08-25T10:12:51.405Z,3.20
2022-08-25T10:15:29.109Z,2.67
2022-08-25T10:18:17.431Z,2.72
2022-08-25T10:20:45.069Z,2.97
2022-08-25T10:23:15.114Z,2.67
2022-08-25T10:25:57.643Z,3.03
2022-08-25T10:28:33.909Z,2.70
2022-08-25T10:31:09.967Z,2.80
2022-08-25T10:33:51.331Z,2.92
2022-08-25T10:36:22.747Z,2.78
2022-08-25T10:38:50.091Z,2.45
2022-08-25T10:41:36.324Z,2.25
2022-08-25T10:44:42.926Z,2.83
2022-08-25T10:47:28.852Z,2.75
2022-08-25T10:49:57.889Z,2.13
2022-08-25T10:52:45.427Z,2.50
2022-08-25T10:55:12.629Z,2.28
2022-08-25T10:58:18.741Z,2.03
2022-08-25T11:01:08.219Z,2.33
2022-08-25T11:03:44.383Z,2.35
2022-08-25T11:06:18.804Z,2.28
2022-08-25T11:08:46.140Z,2.58
2022-08-25T11:11:21.449Z,1.95
2022-08-25T11:13:53.078Z,2.67
2022-08-25T11:16:46.058Z,2.22
2022-08-25T11:19:28.142Z,1.95
2022-08-25T11:22:19.386Z,2.60
2022-08-25T11:25:26.234Z,2.00
2022-08-25T11:28:06.545Z,2.20
2022-08-25T11:30:35.074Z,2.47
2022-08-25T11:33:02.367Z,2.28
2022-08-25T11:35:43.306Z,2.30
2022-08-25T11:38:22.077Z,2.35
2022-08-25T11:41:03.588Z,2.42
2022-08-25T11:43:59.553Z,2.22
2022-08-25T11:46:58.121Z,2.05
2022-08-25T11:49:25.385Z,2.38
2022-08-25T11:51:52.978Z,2.13
2022-08-25T11:54:28.273Z,1.92
2022-08-25T11:57:06.522Z,2.58
2022-08-25T11:59:52.164Z,2.50
2022-08-25T12:02:47.803Z,2.08
2022-08-25T12:05:17.496Z,2.50
2022-08-25T12:07:47.264Z,2.40
2022-08-25T12:10:25.571Z,2.10
2022-08-25T12:13:01.675Z,2.38
2022-08-25T12:15:32.204Z,1.70
2022-08-25T12:18:40.196Z,2.05
2022-08-25T12:21:15.643Z,2.03
2022-08-25T12:24:02.956Z,2.40
2022-08-25T12:26:47.745Z,2.00
2022-08-25T12:29:51.911Z,2.00
2022-08-25T12:32:36.581Z,1.80
2022-08-25T12:35:19.837Z,2.78
2022-08-25T12:37:58.171Z,2.30
2022-08-25T12:40:36.384Z,2.08
2022-08-25T12:43:27.914Z,2.08
2022-08-25T12:46:19.546Z,1.92
2022-08-25T12:48:58.799Z,2.30
2022-08-25T12:51:48.706Z,2.17
2022-08-25T12:54:19.136Z,1.60
2022-08-25T12:56:57.362Z,2.20
2022-08-25T12:59:38.345Z,1.77
2022-08-25T13:02:52.155Z,1.50
2022-08-25T13:05:22.308Z,2.10
2022-08-25T13:07:49.593Z,1.48
2022-08-25T13:10:42.318Z,1.45
2022-08-25T13:13:09.652Z,1.77
2022-08-25T13:15:37.854Z,1.77
2022-08-25T13:18:17.899Z,2.60
2022-08-25T13:20:46.661Z,1.73
2022-08-25T13:23:17.927Z,1.55
2022-08-25T13:25:50.903Z,2.03
2022-08-25T13:28:24.758Z,1.75
2022-08-25T13:30:58.950Z,1.80
2022-08-25T13:33:27.906Z,1.80
2022-08-25T13:36:15.973Z,1.67
2022-08-25T13:38:46.673Z,1.55
2022-08-25T13:41:29.555Z,1.98
2022-08-25T13:44:01.026Z,1.95
2022-08-25T13:46:30.661Z,1.77
2022-08-25T13:49:06.182Z,2.10
2022-08-25T13:51:33.569Z,1.75
2022-08-25T13:54:05.822Z,1.83
2022-08-25T13:56:40.989Z,2.05
2022-08-25T13:59:25.290Z,1.52
2022-08-25T14:01:54.396Z,2.03
2022-08-25T14:04:21.882Z,1.80
2022-08-25T14:06:49.344Z,2.03
2022-08-25T14:09:18.517Z,1.98
2022-08-25T14:11:58.570Z,2.15
2022-08-25T14:14:25.778Z,2.70
2022-08-25T14:17:22.356Z,2.60
2022-08-25T14:19:57.177Z,1.90
2022-08-25T14:22:24.567Z,2.03
2022-08-25T14:24:53.918Z,2.15
2022-08-25T14:27:21.384Z,1.77
2022-08-25T14:29:52.689Z,1.75
2022-08-25T14:32:20.527Z,1.52
2022-08-25T14:34:47.455Z,2.10
2022-08-25T14:37:19.788Z,2.00
2022-08-25T14:39:47.224Z,2.65
2022-08-25T14:42:17.006Z,1.88
2022-08-25T14:44:44.609Z,1.45
2022-08-25T14:47:12.000Z,1.50
2022-08-25T14:49:41.998Z,1.38
2022-08-25T14:52:16.363Z,1.52
2022-08-25T14:54:44.954Z,1.58
2022-08-25T14:57:13.695Z,1.77
2022-08-25T14:59:43.183Z,1.92
2022-08-25T15:02:14.209Z,1.55
2022-08-25T15:04:42.492Z,1.80
2022-08-25T15:07:35.305Z,1.90
2022-08-25T15:10:02.657Z,1.83
2022-08-25T15:12:46.596Z,2.00
2022-08-25T15:15:15.266Z,1.85
2022-08-25T15:17:44.553Z,1.83
2022-08-25T15:20:11.686Z,1.98
2022-08-25T15:22:38.995Z,2.00
2022-08-25T15:25:08.889Z,2.15
2022-08-25T15:27:36.936Z,1.95
2022-08-25T15:30:05.467Z,1.90
2022-08-25T15:32:32.716Z,1.42
2022-08-25T15:35:00.923Z,1.90
2022-08-25T15:37:28.979Z,1.90
2022-08-25T15:39:56.975Z,2.05
2022-08-25T15:42:25.515Z,1.95
2022-08-25T15:44:53.876Z,1.60
2022-08-25T15:47:22.425Z,1.90
2022-08-25T15:49:49.632Z,1.67
2022-08-25T15:52:17.474Z,1.35
2022-08-25T15:54:45.150Z,1.90
2022-08-25T15:57:16.847Z,2.10
2022-08-25T15:59:52.513Z,1.95
2022-08-25T16:02:21.235Z,2.20
2022-08-25T16:04:48.712Z,14.52
2022-08-25T16:07:15.898Z,6.25
2022-08-25T16:09:43.125Z,3.10
2022-08-25T16:12:11.288Z,2.35
2022-08-25T16:14:40.324Z,2.20
2022-08-25T16:17:07.960Z,1.70
2022-08-25T16:19:38.059Z,2.03
2022-08-25T16:22:08.719Z,2.40
2022-08-25T16:24:38.429Z,1.63
2022-08-25T16:27:11.372Z,1.50
2022-08-25T16:29:43.920Z,1.60
2022-08-25T16:32:13.457Z,1.83
2022-08-25T16:34:41.480Z,1.67
2022-08-25T16:37:08.685Z,1.90
2022-08-25T16:39:36.590Z,1.50
2022-08-25T16:42:07.355Z,1.40
2022-08-25T16:44:34.527Z,1.88
2022-08-25T16:47:01.600Z,1.70
2022-08-25T16:49:28.897Z,1.80
2022-08-25T16:51:57.693Z,1.60
2022-08-25T16:54:44.513Z,1.70
2022-08-25T16:57:11.807Z,1.52
2022-08-25T16:59:38.634Z,1.55
2022-08-25T17:02:06.521Z,1.90
2022-08-25T17:04:33.386Z,1.40
2022-08-25T17:07:00.515Z,2.13
2022-08-25T17:09:29.803Z,1.55
2022-08-25T17:11:57.210Z,1.35
2022-08-25T17:14:24.327Z,1.58
2022-08-25T17:16:54.621Z,1.63
2022-08-25T17:19:22.149Z,1.60
2022-08-25T17:21:51.092Z,1.98
2022-08-25T17:24:18.440Z,1.83
2022-08-25T17:26:47.222Z,2.03
2022-08-25T17:29:14.107Z,1.70
2022-08-25T17:31:43.010Z,1.42
2022-08-25T17:34:16.503Z,1.65
2022-08-25T17:36:44.480Z,1.40
2022-08-25T17:39:14.102Z,1.75
2022-08-25T17:41:41.764Z,1.70
2022-08-25T17:44:08.686Z,1.83
2022-08-25T17:46:39.157Z,1.63
2022-08-25T17:49:11.886Z,1.33
2022-08-25T17:51:39.117Z,1.55
2022-08-25T17:54:06.390Z,1.80
2022-08-25T17:56:34.068Z,1.75
2022-08-25T17:59:01.957Z,1.77
2022-08-25T18:01:31.889Z,1.55
2022-08-25T18:03:59.869Z,1.38
2022-08-25T18:06:29.544Z,1.88
2022-08-25T18:09:00.209Z,2.00
2022-08-25T18:11:28.788Z,1.38
2022-08-25T18:13:57.930Z,1.88
2022-08-25T18:16:26.215Z,2.10
2022-08-25T18:18:54.687Z,2.45
2022-08-25T18:21:22.374Z,1.85
2022-08-25T18:23:49.971Z,2.45
2022-08-25T18:26:24.681Z,2.20
2022-08-25T18:31:20.091Z,1.77
2022-08-25T18:33:51.029Z,1.70
2022-08-25T18:36:20.765Z,1.95
2022-08-25T18:39:08.032Z,2.17
2022-08-25T18:41:39.095Z,1.58
2022-08-25T18:44:08.436Z,1.98
2022-08-25T18:46:39.392Z,1.70
2022-08-25T18:49:06.689Z,1.90
2022-08-25T18:51:36.716Z,1.65
2022-08-25T18:54:04.491Z,2.28
2022-08-25T18:56:31.300Z,1.95
2022-08-25T18:58:58.368Z,2.30
2022-08-25T19:01:26.345Z,2.45
2022-08-25T19:03:55.746Z,2.17
2022-08-25T19:06:22.714Z,1.98
2022-08-25T19:08:50.195Z,2.50
2022-08-25T19:11:17.615Z,2.13
2022-08-25T19:13:50.823Z,2.00
2022-08-25T19:16:40.040Z,2.33
2022-08-25T19:19:10.144Z,2.13
2022-08-25T19:21:38.831Z,2.15
2022-08-25T19:24:07.348Z,1.95
2022-08-25T19:26:35.986Z,2.22
2022-08-25T19:29:08.947Z,2.20
2022-08-25T19:31:36.909Z,2.50
2022-08-25T19:34:05.457Z,2.60
2022-08-25T19:36:32.653Z,2.65
2022-08-25T19:39:01.788Z,2.38
2022-08-25T19:41:31.393Z,1.75
2022-08-25T19:43:59.702Z,1.85
2022-08-25T19:46:35.820Z,2.20
2022-08-25T19:49:31.776Z,2.30
2022-08-25T19:52:02.047Z,2.90
2022-08-25T19:54:33.877Z,2.50
2022-08-25T19:57:01.315Z,2.38
2022-08-25T19:59:36.619Z,2.20
2022-08-25T20:02:16.136Z,2.47
2022-08-25T20:04:50.742Z,2.58
2022-08-25T20:07:21.145Z,2.72
2022-08-25T20:09:48.612Z,2.28
2022-08-25T20:12:16.015Z,2.22
2022-08-25T20:14:45.088Z,1.98
2022-08-25T20:17:14.358Z,1.90
2022-08-25T20:19:47.483Z,2.38
2022-08-25T20:22:17.504Z,2.40
2022-08-25T20:24:51.133Z,2.45
2022-08-25T20:27:28.086Z,2.30
2022-08-25T20:29:55.357Z,2.22
2022-08-25T20:32:23.642Z,2.38
2022-08-25T20:34:51.309Z,2.45
2022-08-25T20:37:19.481Z,2.35
2022-08-25T20:39:47.145Z,2.83
2022-08-25T20:42:14.994Z,2.65
2022-08-25T20:44:42.565Z,2.60
2022-08-25T20:47:10.622Z,2.50
2022-08-25T20:49:41.276Z,3.45
2022-08-25T20:52:08.693Z,4.85
2022-08-25T20:54:36.910Z,3.17
2022-08-25T20:57:04.786Z,2.90
2022-08-25T20:59:35.156Z,2.30
2022-08-25T21:02:02.734Z,2.10
2022-08-25T21:04:30.974Z,1.98
2022-08-25T21:07:00.171Z,2.45
2022-08-25T21:09:28.216Z,2.20
2022-08-25T21:11:57.191Z,2.38
2022-08-25T21:14:26.249Z,2.03
2022-08-25T21:16:54.371Z,2.58
2022-08-25T21:19:26.672Z,2.22
2022-08-25T21:21:59.881Z,2.70
2022-08-25T21:24:28.389Z,2.00
2022-08-25T21:26:57.038Z,2.35
2022-08-25T21:29:25.801Z,2.65
2022-08-25T21:31:58.955Z,2.65
2022-08-25T21:34:28.769Z,2.38
2022-08-25T21:36:57.808Z,2.35
2022-08-25T21:39:27.557Z,2.30
2022-08-25T21:41:56.522Z,2.30
2022-08-25T21:44:23.954Z,2.95
2022-08-25T21:46:54.654Z,2.25
2022-08-25T21:49:23.112Z,2.63
2022-08-25T21:52:00.637Z,2.38
2022-08-25T21:54:29.055Z,2.47
2022-08-25T21:57:01.123Z,2.30
2022-08-25T21:59:33.509Z,2.50
2022-08-25T22:02:04.325Z,2.58
2022-08-25T22:04:32.943Z,2.35
2022-08-25T22:07:00.782Z,2.30
2022-08-25T22:09:29.681Z,2.53
2022-08-25T22:11:56.917Z,3.35
2022-08-25T22:14:26.367Z,2.45
2022-08-25T22:16:54.591Z,2.92
2022-08-25T22:19:22.825Z,2.58
2022-08-25T22:21:51.035Z,2.72
2022-08-25T22:24:18.677Z,2.58
2022-08-25T22:26:47.488Z,2.83
2022-08-25T22:29:24.653Z,2.88
2022-08-25T22:31:52.936Z,2.63
2022-08-25T22:34:30.749Z,2.58
2022-08-25T22:36:59.845Z,2.85
2022-08-25T22:39:27.268Z,2.78
2022-08-25T22:41:54.528Z,2.83
2022-08-25T22:44:23.220Z,2.55
2022-08-25T22:46:50.504Z,2.70
2022-08-25T22:49:17.644Z,2.40
2022-08-25T22:51:44.841Z,2.45
2022-08-25T22:54:15.153Z,2.70
2022-08-25T22:56:42.891Z,3.00
2022-08-25T22:59:13.453Z,2.92
2022-08-25T23:01:43.109Z,2.75
2022-08-25T23:04:10.794Z,2.78
2022-08-25T23:06:38.247Z,2.47
2022-08-25T23:09:07.197Z,2.75
2022-08-25T23:11:35.679Z,3.10
2022-08-25T23:14:08.268Z,2.75
2022-08-25T23:16:35.637Z,3.13
2022-08-25T23:19:02.973Z,2.67
2022-08-25T23:21:48.944Z,2.55
2022-08-25T23:24:27.092Z,3.30
2022-08-25T23:26:57.954Z,2.60
2022-08-25T23:29:25.409Z,3.17
2022-08-25T23:31:53.516Z,2.97
2022-08-25T23:34:21.775Z,2.65
2022-08-25T23:36:49.468Z,2.80
2022-08-25T23:39:16.842Z,2.80
2022-08-25T23:41:44.414Z,3.28
2022-08-25T23:44:17.399Z,2.95
2022-08-25T23:46:45.480Z,2.35
2022-08-25T23:49:18.530Z,2.97
2022-08-25T23:51:46.728Z,3.05
2022-08-25T23:54:14.694Z,2.90
2022-08-25T23:56:44.993Z,3.17
2022-08-25T23:59:18.809Z,2.80
